sensor_id;sensor_type;location;lat;lon;timestamp;pressure;altitude;pressure_sealevel;temperature;humidity
50632;BME280;49583;45.590;-122.498;2023-01-23T00:01:09;102770.39;;;9.81;61.48
50632;BME280;49583;45.590;-122.498;2023-01-23T00:03:19;102764.94;;;9.79;61.35
50632;BME280;49583;45.590;-122.498;2023-01-23T00:05:29;102763.14;;;9.78;61.55
50632;BME280;49583;45.590;-122.498;2023-01-23T00:07:38;102765.29;;;9.75;61.39
50632;BME280;49583;45.590;-122.498;2023-01-23T00:09:48;102766.38;;;9.73;61.21
50632;BME280;49583;45.590;-122.498;2023-01-23T00:11:58;102769.31;;;9.71;61.44
50632;BME280;49583;45.590;-122.498;2023-01-23T00:14:09;102767.64;;;9.67;61.45
50632;BME280;49583;45.590;-122.498;2023-01-23T00:16:21;102757.14;;;9.64;61.53
50632;BME280;49583;45.590;-122.498;2023-01-23T00:18:31;102758.17;;;9.63;61.60
50632;BME280;49583;45.590;-122.498;2023-01-23T00:20:42;102759.63;;;9.61;61.37
50632;BME280;49583;45.590;-122.498;2023-01-23T00:22:52;102755.76;;;9.60;61.44
50632;BME280;49583;45.590;-122.498;2023-01-23T00:25:02;102754.64;;;9.60;61.63
50632;BME280;49583;45.590;-122.498;2023-01-23T00:27:14;102754.93;;;9.59;61.64
50632;BME280;49583;45.590;-122.498;2023-01-23T00:29:27;102752.67;;;9.59;61.82
50632;BME280;49583;45.590;-122.498;2023-01-23T00:31:39;102752.92;;;9.60;61.48
50632;BME280;49583;45.590;-122.498;2023-01-23T00:33:51;102754.89;;;9.59;61.45
50632;BME280;49583;45.590;-122.498;2023-01-23T00:36:06;102754.47;;;9.57;61.74
50632;BME280;49583;45.590;-122.498;2023-01-23T00:38:17;102759.08;;;9.56;61.58
50632;BME280;49583;45.590;-122.498;2023-01-23T00:40:27;102759.52;;;9.53;61.56
50632;BME280;49583;45.590;-122.498;2023-01-23T00:42:38;102762.85;;;9.50;61.85
50632;BME280;49583;45.590;-122.498;2023-01-23T00:44:49;102764.48;;;9.48;61.77
50632;BME280;49583;45.590;-122.498;2023-01-23T00:46:59;102764.31;;;9.45;61.86
50632;BME280;49583;45.590;-122.498;2023-01-23T00:49:09;102768.73;;;9.43;61.80
50632;BME280;49583;45.590;-122.498;2023-01-23T00:51:19;102769.02;;;9.39;61.87
50632;BME280;49583;45.590;-122.498;2023-01-23T00:53:30;102770.34;;;9.36;61.63
50632;BME280;49583;45.590;-122.498;2023-01-23T00:55:40;102768.36;;;9.33;61.76
50632;BME280;49583;45.590;-122.498;2023-01-23T00:57:50;102768.54;;;9.29;61.63
50632;BME280;49583;45.590;-122.498;2023-01-23T01:00:01;102772.25;;;9.26;62.07
50632;BME280;49583;45.590;-122.498;2023-01-23T01:02:12;102770.31;;;9.24;62.09
50632;BME280;49583;45.590;-122.498;2023-01-23T01:04:22;102767.99;;;9.22;61.97
50632;BME280;49583;45.590;-122.498;2023-01-23T01:06:33;102763.80;;;9.18;62.30
50632;BME280;49583;45.590;-122.498;2023-01-23T01:08:43;102765.56;;;9.17;62.06
50632;BME280;49583;45.590;-122.498;2023-01-23T01:10:56;102768.27;;;9.15;61.99
50632;BME280;49583;45.590;-122.498;2023-01-23T01:13:08;102776.75;;;9.14;62.14
50632;BME280;49583;45.590;-122.498;2023-01-23T01:15:18;102776.92;;;9.12;62.20
50632;BME280;49583;45.590;-122.498;2023-01-23T01:17:29;102774.77;;;9.09;61.59
50632;BME280;49583;45.590;-122.498;2023-01-23T01:19:39;102774.85;;;9.07;62.33
50632;BME280;49583;45.590;-122.498;2023-01-23T01:21:49;102770.10;;;9.04;62.21
50632;BME280;49583;45.590;-122.498;2023-01-23T01:23:59;102771.22;;;9.03;62.62
50632;BME280;49583;45.590;-122.498;2023-01-23T01:26:09;102773.30;;;9.01;62.35
50632;BME280;49583;45.590;-122.498;2023-01-23T01:28:19;102774.87;;;8.99;62.33
50632;BME280;49583;45.590;-122.498;2023-01-23T01:30:29;102773.70;;;8.97;62.35
50632;BME280;49583;45.590;-122.498;2023-01-23T01:32:39;102771.27;;;8.96;62.47
50632;BME280;49583;45.590;-122.498;2023-01-23T01:34:51;102768.24;;;8.94;62.73
50632;BME280;49583;45.590;-122.498;2023-01-23T01:37:02;102769.55;;;8.93;62.83
50632;BME280;49583;45.590;-122.498;2023-01-23T01:39:13;102764.93;;;8.91;62.61
50632;BME280;49583;45.590;-122.498;2023-01-23T01:41:24;102764.71;;;8.89;62.81
50632;BME280;49583;45.590;-122.498;2023-01-23T01:43:35;102765.98;;;8.87;63.10
50632;BME280;49583;45.590;-122.498;2023-01-23T01:46:06;102767.27;;;8.85;63.02
50632;BME280;49583;45.590;-122.498;2023-01-23T01:48:16;102764.94;;;8.83;63.43
50632;BME280;49583;45.590;-122.498;2023-01-23T01:50:27;102763.85;;;8.82;63.18
50632;BME280;49583;45.590;-122.498;2023-01-23T01:52:37;102756.94;;;8.79;63.29
50632;BME280;49583;45.590;-122.498;2023-01-23T01:54:50;102754.76;;;8.79;63.61
50632;BME280;49583;45.590;-122.498;2023-01-23T01:57:03;102765.55;;;8.77;63.48
50632;BME280;49583;45.590;-122.498;2023-01-23T01:59:15;102768.06;;;8.74;63.62
50632;BME280;49583;45.590;-122.498;2023-01-23T02:01:25;102769.06;;;8.73;63.77
50632;BME280;49583;45.590;-122.498;2023-01-23T02:03:36;102771.00;;;8.70;63.85
50632;BME280;49583;45.590;-122.498;2023-01-23T02:05:49;102772.50;;;8.68;63.92
50632;BME280;49583;45.590;-122.498;2023-01-23T02:08:05;102772.83;;;8.66;63.89
50632;BME280;49583;45.590;-122.498;2023-01-23T02:10:20;102780.11;;;8.64;64.08
50632;BME280;49583;45.590;-122.498;2023-01-23T02:12:32;102787.62;;;8.62;64.45
50632;BME280;49583;45.590;-122.498;2023-01-23T02:14:43;102780.67;;;8.59;64.19
50632;BME280;49583;45.590;-122.498;2023-01-23T02:16:56;102782.67;;;8.56;64.22
50632;BME280;49583;45.590;-122.498;2023-01-23T02:19:13;102772.77;;;8.54;64.40
50632;BME280;49583;45.590;-122.498;2023-01-23T02:21:28;102778.16;;;8.51;64.78
50632;BME280;49583;45.590;-122.498;2023-01-23T02:23:46;102782.55;;;8.49;64.75
50632;BME280;49583;45.590;-122.498;2023-01-23T02:26:06;102792.79;;;8.47;64.87
50632;BME280;49583;45.590;-122.498;2023-01-23T02:28:18;102795.17;;;8.44;64.68
50632;BME280;49583;45.590;-122.498;2023-01-23T02:30:29;102790.06;;;8.43;64.83
50632;BME280;49583;45.590;-122.498;2023-01-23T02:32:39;102787.91;;;8.41;64.96
50632;BME280;49583;45.590;-122.498;2023-01-23T02:34:49;102785.62;;;8.40;65.19
50632;BME280;49583;45.590;-122.498;2023-01-23T02:37:00;102783.23;;;8.39;65.57
50632;BME280;49583;45.590;-122.498;2023-01-23T02:39:12;102788.38;;;8.38;65.48
50632;BME280;49583;45.590;-122.498;2023-01-23T02:41:22;102783.46;;;8.37;65.54
50632;BME280;49583;45.590;-122.498;2023-01-23T02:43:33;102783.39;;;8.35;65.46
50632;BME280;49583;45.590;-122.498;2023-01-23T02:45:45;102780.27;;;8.33;65.71
50632;BME280;49583;45.590;-122.498;2023-01-23T02:47:55;102780.97;;;8.31;65.69
50632;BME280;49583;45.590;-122.498;2023-01-23T02:50:05;102778.23;;;8.30;66.08
50632;BME280;49583;45.590;-122.498;2023-01-23T02:52:17;102774.69;;;8.29;65.92
50632;BME280;49583;45.590;-122.498;2023-01-23T02:54:27;102775.08;;;8.27;66.13
50632;BME280;49583;45.590;-122.498;2023-01-23T02:56:40;102775.27;;;8.24;66.07
50632;BME280;49583;45.590;-122.498;2023-01-23T02:58:50;102777.02;;;8.22;66.03
50632;BME280;49583;45.590;-122.498;2023-01-23T03:01:17;102776.98;;;8.18;66.30
50632;BME280;49583;45.590;-122.498;2023-01-23T03:03:28;102779.57;;;8.15;66.20
50632;BME280;49583;45.590;-122.498;2023-01-23T03:05:39;102781.96;;;8.12;66.19
50632;BME280;49583;45.590;-122.498;2023-01-23T03:07:49;102785.21;;;8.10;66.45
50632;BME280;49583;45.590;-122.498;2023-01-23T03:10:02;102793.61;;;8.09;66.68
50632;BME280;49583;45.590;-122.498;2023-01-23T03:12:14;102801.15;;;8.09;66.58
50632;BME280;49583;45.590;-122.498;2023-01-23T03:14:24;102797.02;;;8.07;66.63
50632;BME280;49583;45.590;-122.498;2023-01-23T03:16:34;102801.98;;;8.07;66.40
50632;BME280;49583;45.590;-122.498;2023-01-23T03:18:45;102798.71;;;8.06;66.58
50632;BME280;49583;45.590;-122.498;2023-01-23T03:21:05;102800.64;;;8.06;66.66
50632;BME280;49583;45.590;-122.498;2023-01-23T03:23:16;102800.95;;;8.03;66.71
50632;BME280;49583;45.590;-122.498;2023-01-23T03:25:27;102800.20;;;8.00;66.91
50632;BME280;49583;45.590;-122.498;2023-01-23T03:27:38;102794.84;;;7.98;67.03
50632;BME280;49583;45.590;-122.498;2023-01-23T03:29:48;102799.07;;;7.96;66.79
50632;BME280;49583;45.590;-122.498;2023-01-23T03:32:15;102798.27;;;7.94;67.05
50632;BME280;49583;45.590;-122.498;2023-01-23T03:34:26;102800.95;;;7.93;67.10
50632;BME280;49583;45.590;-122.498;2023-01-23T03:36:36;102795.78;;;7.91;67.01
50632;BME280;49583;45.590;-122.498;2023-01-23T03:38:46;102794.25;;;7.91;67.17
50632;BME280;49583;45.590;-122.498;2023-01-23T03:41:09;102788.09;;;7.91;67.11
50632;BME280;49583;45.590;-122.498;2023-01-23T03:43:39;102792.23;;;7.91;67.19
50632;BME280;49583;45.590;-122.498;2023-01-23T03:45:49;102785.95;;;7.91;66.93
50632;BME280;49583;45.590;-122.498;2023-01-23T03:47:59;102784.64;;;7.92;67.34
50632;BME280;49583;45.590;-122.498;2023-01-23T03:50:11;102789.16;;;7.93;67.45
50632;BME280;49583;45.590;-122.498;2023-01-23T03:52:21;102787.09;;;7.92;67.50
50632;BME280;49583;45.590;-122.498;2023-01-23T03:54:33;102783.84;;;7.90;67.50
50632;BME280;49583;45.590;-122.498;2023-01-23T03:56:44;102790.74;;;7.89;67.59
50632;BME280;49583;45.590;-122.498;2023-01-23T03:59:13;102796.92;;;7.87;67.54
50632;BME280;49583;45.590;-122.498;2023-01-23T04:01:23;102796.88;;;7.86;67.58
50632;BME280;49583;45.590;-122.498;2023-01-23T04:03:33;102799.62;;;7.83;67.60
50632;BME280;49583;45.590;-122.498;2023-01-23T04:05:43;102795.84;;;7.82;67.73
50632;BME280;49583;45.590;-122.498;2023-01-23T04:07:55;102796.90;;;7.80;67.96
50632;BME280;49583;45.590;-122.498;2023-01-23T04:10:06;102797.73;;;7.78;67.96
50632;BME280;49583;45.590;-122.498;2023-01-23T04:12:20;102796.31;;;7.77;68.14
50632;BME280;49583;45.590;-122.498;2023-01-23T04:14:30;102794.05;;;7.75;68.13
50632;BME280;49583;45.590;-122.498;2023-01-23T04:16:44;102789.67;;;7.72;68.17
50632;BME280;49583;45.590;-122.498;2023-01-23T04:18:55;102786.84;;;7.70;68.16
50632;BME280;49583;45.590;-122.498;2023-01-23T04:21:06;102786.98;;;7.68;68.09
50632;BME280;49583;45.590;-122.498;2023-01-23T04:23:16;102788.46;;;7.67;68.45
50632;BME280;49583;45.590;-122.498;2023-01-23T04:25:26;102792.77;;;7.61;68.42
50632;BME280;49583;45.590;-122.498;2023-01-23T04:27:37;102794.79;;;7.60;68.41
50632;BME280;49583;45.590;-122.498;2023-01-23T04:29:48;102793.27;;;7.56;68.38
50632;BME280;49583;45.590;-122.498;2023-01-23T04:31:58;102798.14;;;7.52;68.36
50632;BME280;49583;45.590;-122.498;2023-01-23T04:34:08;102795.84;;;7.49;68.75
50632;BME280;49583;45.590;-122.498;2023-01-23T04:36:18;102797.70;;;7.47;68.83
50632;BME280;49583;45.590;-122.498;2023-01-23T04:38:29;102801.42;;;7.45;68.77
50632;BME280;49583;45.590;-122.498;2023-01-23T04:40:52;102800.92;;;7.42;68.80
50632;BME280;49583;45.590;-122.498;2023-01-23T04:43:02;102800.61;;;7.39;68.88
50632;BME280;49583;45.590;-122.498;2023-01-23T04:45:15;102802.98;;;7.36;69.11
50632;BME280;49583;45.590;-122.498;2023-01-23T04:47:57;102808.95;;;7.33;69.19
50632;BME280;49583;45.590;-122.498;2023-01-23T04:50:10;102811.63;;;7.32;69.31
50632;BME280;49583;45.590;-122.498;2023-01-23T04:52:23;102808.30;;;7.33;69.66
50632;BME280;49583;45.590;-122.498;2023-01-23T04:54:36;102811.84;;;7.34;69.61
50632;BME280;49583;45.590;-122.498;2023-01-23T04:56:47;102813.48;;;7.33;69.57
50632;BME280;49583;45.590;-122.498;2023-01-23T04:58:57;102816.47;;;7.33;69.74
50632;BME280;49583;45.590;-122.498;2023-01-23T05:01:08;102812.22;;;7.34;69.71
50632;BME280;49583;45.590;-122.498;2023-01-23T05:03:19;102815.55;;;7.34;69.93
50632;BME280;49583;45.590;-122.498;2023-01-23T05:05:30;102817.30;;;7.33;69.73
50632;BME280;49583;45.590;-122.498;2023-01-23T05:07:41;102811.09;;;7.30;69.68
50632;BME280;49583;45.590;-122.498;2023-01-23T05:09:53;102805.52;;;7.29;69.96
50632;BME280;49583;45.590;-122.498;2023-01-23T05:12:04;102810.15;;;7.27;69.86
50632;BME280;49583;45.590;-122.498;2023-01-23T05:14:16;102807.66;;;7.24;69.98
50632;BME280;49583;45.590;-122.498;2023-01-23T05:16:27;102805.89;;;7.20;69.86
50632;BME280;49583;45.590;-122.498;2023-01-23T05:18:53;102810.01;;;7.17;69.97
50632;BME280;49583;45.590;-122.498;2023-01-23T05:21:03;102808.77;;;7.13;69.89
50632;BME280;49583;45.590;-122.498;2023-01-23T05:23:13;102808.54;;;7.10;69.99
50632;BME280;49583;45.590;-122.498;2023-01-23T05:25:29;102809.98;;;7.06;70.14
50632;BME280;49583;45.590;-122.498;2023-01-23T05:27:40;102812.30;;;7.02;70.17
50632;BME280;49583;45.590;-122.498;2023-01-23T05:29:49;102814.48;;;7.00;70.32
50632;BME280;49583;45.590;-122.498;2023-01-23T05:32:03;102817.02;;;6.97;70.41
50632;BME280;49583;45.590;-122.498;2023-01-23T05:34:18;102817.09;;;6.93;70.49
50632;BME280;49583;45.590;-122.498;2023-01-23T05:36:28;102817.64;;;6.91;70.57
50632;BME280;49583;45.590;-122.498;2023-01-23T05:38:38;102821.73;;;6.90;70.59
50632;BME280;49583;45.590;-122.498;2023-01-23T05:40:48;102821.49;;;6.87;70.72
50632;BME280;49583;45.590;-122.498;2023-01-23T05:43:16;102821.02;;;6.85;70.71
50632;BME280;49583;45.590;-122.498;2023-01-23T05:45:48;102813.36;;;6.80;70.76
50632;BME280;49583;45.590;-122.498;2023-01-23T05:48:08;102811.25;;;6.76;70.77
50632;BME280;49583;45.590;-122.498;2023-01-23T05:50:18;102806.65;;;6.74;70.86
50632;BME280;49583;45.590;-122.498;2023-01-23T05:52:29;102802.31;;;6.72;70.85
50632;BME280;49583;45.590;-122.498;2023-01-23T05:54:39;102798.67;;;6.69;70.84
50632;BME280;49583;45.590;-122.498;2023-01-23T05:56:52;102798.71;;;6.64;70.82
50632;BME280;49583;45.590;-122.498;2023-01-23T05:59:21;102794.66;;;6.57;71.08
50632;BME280;49583;45.590;-122.498;2023-01-23T06:01:50;102801.65;;;6.51;71.13
50632;BME280;49583;45.590;-122.498;2023-01-23T06:04:33;102799.23;;;6.47;71.41
50632;BME280;49583;45.590;-122.498;2023-01-23T06:06:58;102801.05;;;6.41;71.40
50632;BME280;49583;45.590;-122.498;2023-01-23T06:09:08;102795.52;;;6.36;71.56
50632;BME280;49583;45.590;-122.498;2023-01-23T06:11:18;102791.08;;;6.32;71.76
50632;BME280;49583;45.590;-122.498;2023-01-23T06:13:28;102791.04;;;6.27;71.76
50632;BME280;49583;45.590;-122.498;2023-01-23T06:15:38;102792.64;;;6.23;71.63
50632;BME280;49583;45.590;-122.498;2023-01-23T06:17:48;102796.47;;;6.17;71.87
50632;BME280;49583;45.590;-122.498;2023-01-23T06:19:58;102803.06;;;6.15;71.91
50632;BME280;49583;45.590;-122.498;2023-01-23T06:22:10;102810.20;;;6.12;72.03
50632;BME280;49583;45.590;-122.498;2023-01-23T06:24:40;102808.74;;;6.10;72.06
50632;BME280;49583;45.590;-122.498;2023-01-23T06:26:50;102811.63;;;6.08;72.25
50632;BME280;49583;45.590;-122.498;2023-01-23T06:29:00;102809.89;;;6.06;72.42
50632;BME280;49583;45.590;-122.498;2023-01-23T06:31:11;102802.81;;;6.05;72.48
50632;BME280;49583;45.590;-122.498;2023-01-23T06:33:28;102801.08;;;6.05;72.61
50632;BME280;49583;45.590;-122.498;2023-01-23T06:35:38;102799.46;;;6.04;72.80
50632;BME280;49583;45.590;-122.498;2023-01-23T06:37:47;102802.58;;;6.03;73.06
50632;BME280;49583;45.590;-122.498;2023-01-23T06:39:58;102802.24;;;6.02;72.79
50632;BME280;49583;45.590;-122.498;2023-01-23T06:42:09;102804.20;;;6.01;72.97
50632;BME280;49583;45.590;-122.498;2023-01-23T06:44:23;102802.84;;;6.01;73.21
50632;BME280;49583;45.590;-122.498;2023-01-23T06:46:34;102806.70;;;6.02;73.31
50632;BME280;49583;45.590;-122.498;2023-01-23T06:48:44;102802.63;;;6.03;73.22
50632;BME280;49583;45.590;-122.498;2023-01-23T06:50:57;102796.42;;;6.03;73.17
50632;BME280;49583;45.590;-122.498;2023-01-23T06:53:09;102799.58;;;6.02;73.29
50632;BME280;49583;45.590;-122.498;2023-01-23T06:55:23;102799.31;;;6.02;73.36
50632;BME280;49583;45.590;-122.498;2023-01-23T06:57:34;102803.16;;;6.02;73.35
50632;BME280;49583;45.590;-122.498;2023-01-23T06:59:44;102807.20;;;6.00;73.26
50632;BME280;49583;45.590;-122.498;2023-01-23T07:01:56;102801.10;;;6.00;73.71
50632;BME280;49583;45.590;-122.498;2023-01-23T07:04:22;102802.30;;;5.97;73.48
50632;BME280;49583;45.590;-122.498;2023-01-23T07:06:32;102798.52;;;5.93;73.70
50632;BME280;49583;45.590;-122.498;2023-01-23T07:08:44;102801.61;;;5.91;73.70
50632;BME280;49583;45.590;-122.498;2023-01-23T07:10:54;102802.70;;;5.90;73.77
50632;BME280;49583;45.590;-122.498;2023-01-23T07:13:04;102798.83;;;5.90;73.87
50632;BME280;49583;45.590;-122.498;2023-01-23T07:15:15;102804.98;;;5.89;74.08
50632;BME280;49583;45.590;-122.498;2023-01-23T07:17:25;102814.66;;;5.88;74.09
50632;BME280;49583;45.590;-122.498;2023-01-23T07:19:35;102810.96;;;5.90;74.03
50632;BME280;49583;45.590;-122.498;2023-01-23T07:21:50;102808.52;;;5.90;74.12
50632;BME280;49583;45.590;-122.498;2023-01-23T07:24:00;102807.27;;;5.90;74.08
50632;BME280;49583;45.590;-122.498;2023-01-23T07:26:11;102804.48;;;5.90;74.25
50632;BME280;49583;45.590;-122.498;2023-01-23T07:28:20;102806.41;;;5.87;74.31
50632;BME280;49583;45.590;-122.498;2023-01-23T07:30:30;102807.80;;;5.86;74.23
50632;BME280;49583;45.590;-122.498;2023-01-23T07:32:40;102808.50;;;5.83;74.29
50632;BME280;49583;45.590;-122.498;2023-01-23T07:34:51;102810.58;;;5.81;74.50
50632;BME280;49583;45.590;-122.498;2023-01-23T07:37:01;102804.98;;;5.79;74.33
50632;BME280;49583;45.590;-122.498;2023-01-23T07:39:11;102795.42;;;5.78;74.42
50632;BME280;49583;45.590;-122.498;2023-01-23T07:41:21;102797.48;;;5.77;74.50
50632;BME280;49583;45.590;-122.498;2023-01-23T07:43:29;102806.78;;;5.77;74.42
50632;BME280;49583;45.590;-122.498;2023-01-23T07:45:38;102803.02;;;5.78;74.49
50632;BME280;49583;45.590;-122.498;2023-01-23T07:47:46;102804.95;;;5.80;74.46
50632;BME280;49583;45.590;-122.498;2023-01-23T07:49:54;102807.05;;;5.81;74.49
50632;BME280;49583;45.590;-122.498;2023-01-23T07:52:02;102807.36;;;5.84;74.66
50632;BME280;49583;45.590;-122.498;2023-01-23T07:54:10;102802.69;;;5.84;74.40
50632;BME280;49583;45.590;-122.498;2023-01-23T07:56:19;102799.31;;;5.85;74.50
50632;BME280;49583;45.590;-122.498;2023-01-23T07:58:28;102798.49;;;5.85;74.64
50632;BME280;49583;45.590;-122.498;2023-01-23T08:00:36;102801.29;;;5.87;74.53
50632;BME280;49583;45.590;-122.498;2023-01-23T08:02:44;102800.10;;;5.88;74.53
50632;BME280;49583;45.590;-122.498;2023-01-23T08:04:52;102797.21;;;5.89;74.54
50632;BME280;49583;45.590;-122.498;2023-01-23T08:07:00;102794.37;;;5.89;74.40
50632;BME280;49583;45.590;-122.498;2023-01-23T08:09:08;102795.23;;;5.88;74.44
50632;BME280;49583;45.590;-122.498;2023-01-23T08:11:16;102802.15;;;5.89;74.33
50632;BME280;49583;45.590;-122.498;2023-01-23T08:13:24;102804.77;;;5.90;74.37
50632;BME280;49583;45.590;-122.498;2023-01-23T08:15:32;102804.38;;;5.90;74.39
50632;BME280;49583;45.590;-122.498;2023-01-23T08:17:40;102799.43;;;5.91;74.40
50632;BME280;49583;45.590;-122.498;2023-01-23T08:19:48;102797.14;;;5.90;74.29
50632;BME280;49583;45.590;-122.498;2023-01-23T08:21:56;102803.94;;;5.88;74.11
50632;BME280;49583;45.590;-122.498;2023-01-23T08:24:04;102798.62;;;5.89;74.11
50632;BME280;49583;45.590;-122.498;2023-01-23T08:26:12;102788.41;;;5.87;74.33
50632;BME280;49583;45.590;-122.498;2023-01-23T08:28:21;102787.96;;;5.89;74.09
50632;BME280;49583;45.590;-122.498;2023-01-23T08:30:29;102791.14;;;5.88;74.30
50632;BME280;49583;45.590;-122.498;2023-01-23T08:32:38;102781.78;;;5.88;74.32
50632;BME280;49583;45.590;-122.498;2023-01-23T08:34:46;102778.02;;;5.89;74.36
50632;BME280;49583;45.590;-122.498;2023-01-23T08:36:54;102783.66;;;5.89;74.31
50632;BME280;49583;45.590;-122.498;2023-01-23T08:39:02;102784.28;;;5.88;74.26
50632;BME280;49583;45.590;-122.498;2023-01-23T08:41:10;102782.21;;;5.88;74.17
50632;BME280;49583;45.590;-122.498;2023-01-23T08:43:18;102776.55;;;5.88;74.09
50632;BME280;49583;45.590;-122.498;2023-01-23T08:45:26;102778.56;;;5.89;74.26
50632;BME280;49583;45.590;-122.498;2023-01-23T08:47:34;102777.87;;;5.88;74.21
50632;BME280;49583;45.590;-122.498;2023-01-23T08:49:43;102774.75;;;5.89;74.18
50632;BME280;49583;45.590;-122.498;2023-01-23T08:51:50;102770.56;;;5.87;74.27
50632;BME280;49583;45.590;-122.498;2023-01-23T08:53:58;102768.11;;;5.87;74.35
50632;BME280;49583;45.590;-122.498;2023-01-23T08:56:07;102762.63;;;5.87;74.21
50632;BME280;49583;45.590;-122.498;2023-01-23T08:58:15;102763.33;;;5.88;74.33
50632;BME280;49583;45.590;-122.498;2023-01-23T09:00:23;102763.57;;;5.88;74.38
50632;BME280;49583;45.590;-122.498;2023-01-23T09:02:30;102765.52;;;5.88;74.29
50632;BME280;49583;45.590;-122.498;2023-01-23T09:04:38;102766.11;;;5.88;74.32
50632;BME280;49583;45.590;-122.498;2023-01-23T09:06:47;102764.92;;;5.88;74.32
50632;BME280;49583;45.590;-122.498;2023-01-23T09:08:55;102766.36;;;5.87;74.18
50632;BME280;49583;45.590;-122.498;2023-01-23T09:11:02;102764.73;;;5.86;74.11
50632;BME280;49583;45.590;-122.498;2023-01-23T09:13:10;102769.30;;;5.85;74.29
50632;BME280;49583;45.590;-122.498;2023-01-23T09:15:18;102769.89;;;5.85;74.30
50632;BME280;49583;45.590;-122.498;2023-01-23T09:17:27;102771.20;;;5.84;74.52
50632;BME280;49583;45.590;-122.498;2023-01-23T09:19:35;102777.45;;;5.83;74.52
50632;BME280;49583;45.590;-122.498;2023-01-23T09:21:42;102776.91;;;5.82;74.45
50632;BME280;49583;45.590;-122.498;2023-01-23T09:23:50;102783.05;;;5.82;74.50
50632;BME280;49583;45.590;-122.498;2023-01-23T09:26:02;102781.48;;;5.81;74.38
50632;BME280;49583;45.590;-122.498;2023-01-23T09:28:11;102785.09;;;5.78;74.35
50632;BME280;49583;45.590;-122.498;2023-01-23T09:30:19;102789.00;;;5.77;74.62
50632;BME280;49583;45.590;-122.498;2023-01-23T09:32:27;102796.34;;;5.77;74.44
50632;BME280;49583;45.590;-122.498;2023-01-23T09:34:35;102793.52;;;5.77;74.57
50632;BME280;49583;45.590;-122.498;2023-01-23T09:36:43;102797.14;;;5.74;74.78
50632;BME280;49583;45.590;-122.498;2023-01-23T09:38:52;102801.04;;;5.72;74.75
50632;BME280;49583;45.590;-122.498;2023-01-23T09:41:06;102802.77;;;5.69;74.63
50632;BME280;49583;45.590;-122.498;2023-01-23T09:43:14;102805.92;;;5.67;74.77
50632;BME280;49583;45.590;-122.498;2023-01-23T09:45:23;102809.02;;;5.66;74.86
50632;BME280;49583;45.590;-122.498;2023-01-23T09:47:33;102808.91;;;5.66;74.99
50632;BME280;49583;45.590;-122.498;2023-01-23T09:49:45;102811.63;;;5.66;75.05
50632;BME280;49583;45.590;-122.498;2023-01-23T09:51:57;102812.39;;;5.65;75.22
50632;BME280;49583;45.590;-122.498;2023-01-23T09:54:06;102809.80;;;5.64;75.35
50632;BME280;49583;45.590;-122.498;2023-01-23T09:56:25;102809.03;;;5.62;75.14
50632;BME280;49583;45.590;-122.498;2023-01-23T09:58:38;102806.91;;;5.59;75.20
50632;BME280;49583;45.590;-122.498;2023-01-23T10:00:48;102803.83;;;5.53;75.31
50632;BME280;49583;45.590;-122.498;2023-01-23T10:02:57;102800.95;;;5.48;75.31
50632;BME280;49583;45.590;-122.498;2023-01-23T10:05:07;102798.45;;;5.46;75.46
50632;BME280;49583;45.590;-122.498;2023-01-23T10:10:13;102805.30;;;5.43;75.86
50632;BME280;49583;45.590;-122.498;2023-01-23T10:12:28;102804.91;;;5.43;75.93
50632;BME280;49583;45.590;-122.498;2023-01-23T10:14:48;102810.67;;;5.45;75.86
50632;BME280;49583;45.590;-122.498;2023-01-23T10:17:04;102806.05;;;5.44;75.95
50632;BME280;49583;45.590;-122.498;2023-01-23T10:19:16;102806.33;;;5.45;76.04
50632;BME280;49583;45.590;-122.498;2023-01-23T10:21:30;102796.70;;;5.43;75.61
50632;BME280;49583;45.590;-122.498;2023-01-23T10:23:48;102798.52;;;5.41;75.63
50632;BME280;49583;45.590;-122.498;2023-01-23T10:26:02;102807.38;;;5.40;75.96
50632;BME280;49583;45.590;-122.498;2023-01-23T10:28:17;102808.23;;;5.36;76.00
50632;BME280;49583;45.590;-122.498;2023-01-23T10:30:30;102802.54;;;5.31;76.09
50632;BME280;49583;45.590;-122.498;2023-01-23T10:32:43;102795.64;;;5.26;76.20
50632;BME280;49583;45.590;-122.498;2023-01-23T10:34:54;102796.95;;;5.25;76.11
50632;BME280;49583;45.590;-122.498;2023-01-23T10:37:06;102797.71;;;5.25;76.06
50632;BME280;49583;45.590;-122.498;2023-01-23T10:39:18;102797.98;;;5.23;76.27
50632;BME280;49583;45.590;-122.498;2023-01-23T10:41:27;102801.02;;;5.21;76.45
50632;BME280;49583;45.590;-122.498;2023-01-23T10:43:35;102803.45;;;5.18;76.18
50632;BME280;49583;45.590;-122.498;2023-01-23T10:45:44;102801.17;;;5.13;76.35
50632;BME280;49583;45.590;-122.498;2023-01-23T10:47:52;102799.00;;;5.08;76.20
50632;BME280;49583;45.590;-122.498;2023-01-23T10:50:00;102798.33;;;5.04;76.34
50632;BME280;49583;45.590;-122.498;2023-01-23T10:52:22;102799.52;;;4.98;76.43
50632;BME280;49583;45.590;-122.498;2023-01-23T10:54:43;102803.60;;;4.94;76.45
50632;BME280;49583;45.590;-122.498;2023-01-23T10:56:55;102803.16;;;4.91;76.70
50632;BME280;49583;45.590;-122.498;2023-01-23T10:59:04;102803.37;;;4.89;76.83
50632;BME280;49583;45.590;-122.498;2023-01-23T11:01:20;102797.17;;;4.87;76.74
50632;BME280;49583;45.590;-122.498;2023-01-23T11:03:31;102792.66;;;4.83;76.35
50632;BME280;49583;45.590;-122.498;2023-01-23T11:05:39;102788.75;;;4.80;76.51
50632;BME280;49583;45.590;-122.498;2023-01-23T11:07:57;102794.61;;;4.75;76.63
50632;BME280;49583;45.590;-122.498;2023-01-23T11:10:14;102803.23;;;4.74;76.69
50632;BME280;49583;45.590;-122.498;2023-01-23T11:12:24;102808.98;;;4.73;76.78
50632;BME280;49583;45.590;-122.498;2023-01-23T11:14:33;102810.89;;;4.72;76.72